Flight Track Log - Related Links

Times and Time Zones

All times are in EDT time to prevent confusion due to time zone crossing. See the CTL78 flight status page for this flight to view local times or setup timezone preferences in your user account.

Time Position Orientation Groundspeed Altitude Reporting Facility
EDT Latitude Longitude Course Direction KTS MPH feet Rate Location/Type
Fri 09:36:35 PM 42.0497 -83.0636 104° East 170 196 5,100  Level Cleveland Center
Fri 09:36:51 PM 42.0461 -83.0439 104° East 177 204 5,100  Level Cleveland Center
Fri 09:37:52 PM 42.0244 -82.9869 117° Southeast 177 204 5,100  Level Cleveland Center
Fri 09:38:53 PM 42.0006 -82.9275 118° Southeast 177 204 5,100  Level Cleveland Center
Fri 09:39:53 PM 41.9789 -82.8653 115° Southeast 178 205 5,100  Level Cleveland Center
Fri 09:40:25 PM 41.9689 -82.8453 124° Southeast 175 201 5,100  Level Cleveland Center
Fri 09:41:44 PM 41.9350 -82.7603 118° Southeast 181 208 5,100  Level Cleveland Center
Fri 09:42:57 PM 41.9094 -82.6869 115° Southeast 178 205 5,100  Level Cleveland Center
Fri 09:43:51 PM 41.8875 -82.6333 119° Southeast 181 208 5,100  Level Cleveland Center
Fri 09:44:46 PM 41.8633 -82.5794 121° Southeast 181 208 5,100  Level Cleveland Center
Fri 09:45:46 PM 41.8436 -82.5147 112° Southeast 182 209 5,100  Level Cleveland Center
Fri 09:46:47 PM 41.8217 -82.4611 119° Southeast 179 206 5,100  Level Cleveland Center
Fri 09:47:48 PM 41.7933 -82.3989 121° Southeast 183 211 5,100  Level Cleveland Center
Fri 09:48:54 PM 41.7631 -82.3342 122° Southeast 185 213 5,100  Level Cleveland Center
Fri 09:49:55 PM 41.7350 -82.2722 121° Southeast 188 216 5,100  Level Cleveland Center
Fri 09:50:49 PM 41.7086 -82.2242 126° Southeast 187 215 5,100 -209 Level Cleveland Center
Fri 09:51:50 PM 41.6822 -82.1622 120° Southeast 189 217 4,700 -563 Descending Cleveland Center
Fri 09:52:57 PM 41.6519 -82.0894 119° Southeast 208 239 3,900 -661 Descending Cleveland Center
Fri 09:53:57 PM 41.6258 -82.0219 117° Southeast 202 232 3,300 -472 Descending Cleveland Center
Fri 09:55:04 PM 41.5953 -81.9492 119° Southeast 194 223 2,900 -328 Descending Cleveland Center
Fri 09:56:05 PM 41.5711 -81.8847 117° Southeast 191 220 2,600 -248 Descending Cleveland Center
Fri 09:57:05 PM 41.5444 -81.8317 124° Southeast 174 200 2,400 -347 Descending Cleveland Center
Fri 09:58:06 PM 41.5244 -81.7703 113° Southeast 173 199 1,900 -496 Descending Cleveland Center
Fri 09:59:06 PM 41.5039 -81.7256 122° Southeast 135 155 1,400 -500 Descending Cleveland Center
Fri 10:01:00 PM 41.5175 -81.6833 108° East  Level Estimated

Login

Don't have an account? Register now (free) for customized features, flight alerts, and more!